Tiempo atmosférico en la estación meteorológica de Zamora, Zamora (656 m.)



Fecha
DESCASC
Temp. máxima en grados centígrados (hora)
DESCASC
Temp. mínima en grados centígrados (hora)
DESCASC
Temp. media en grados centígrados
DESCASC
Racha de viento máxima en m/sg (hora)
DESCASC
Velocidad máxima media en intervalos de 10 minutos(hora)
DESCASC
Precipitaciones diarias en mm
DESCASC
Precipitaciones de 00:00 a 06:00 en mm
DESCASC
Precipitaciones de 06:00 a 12:00 en mm
DESCASC
Precipitaciones de 12:00 a 18:00 en mm
DESCASC
Precipitaciones de 18:00 a 24:00 en mm
DESCASC
16-02-2020 15.9 (15:40) 7.6 (03:30) 11.7 10.56 (14:10) 4.17 (14:30) 0 0 0 0 0
14-02-2020 14.2 (16:10) 2.6 (07:10) 8.4 4.44 (16:40) 2.22 (16:30) 0 0 0 0 0
13-02-2020 14.1 (15:50) 8.7 (00:00) 11.4 7.5 (12:40) 3.61 (13:20) 0 0 0 0 0
12-02-2020 15.7 (14:40) 7.3 (00:00) 11.5 4.72 (02:00) 2.22 (02:30) 0.2 0.2 0 0 0
11-02-2020 15.2 (15:20) 8 (00:00) 11.6 5.28 (01:50) 2.5 (15:00) 0.2 0 0 0 0.2
10-02-2020 15.5 (16:20) 10.9 (00:00) 13.2 9.17 (17:00) 3.89 (18:50) 0 0 0 0 0
09-02-2020 13.7 (15:20) 5.3 (00:00) 9.5 8.33 (14:10) 3.33 (15:40) 0 0 0 0 0
08-02-2020 14.5 (15:30) 7 (00:00) 10.8 6.94 (14:50) 3.33 (14:50) 1.8 0 1.8 0 0
07-02-2020 15.4 (15:10) 2.1 (00:00) 8.7 5.83 (16:20) 2.5 (15:00) 0 0 0 0 0
06-02-2020 13.4 (16:20) -0.7 (-00:0) 6.3 2.78 (13:00) 1.39 (10:40) 0 0 0 0 0
05-02-2020 11.1 (15:50) 0.7 (00:00) 5.9 7.5 (13:50) 4.44 (13:40) 0 0 0 0 0
04-02-2020 9.7 (16:50) 4.2 (00:00) 6.9 5.28 (11:10) 3.33 (11:10) 0 0 0 0 0
03-02-2020 13.9 (16:20) 5.8 (06:20) 9.8 3.89 (11:30) 2.5 (11:10) 0 0 0 0 0
02-02-2020 19.2 (15:40) 10.5 (00:00) 14.9 6.11 (15:50) 2.22 (10:10) 0 0 0 0 0
01-02-2020 17.3 (15:50) 12.1 (00:00) 14.7 8.33 (02:00) 3.61 (12:50) 0.6 0.4 0.2 0 0
31-01-2020 15.3 (14:30) 10.9 (00:00) 13.1 8.06 (13:00) 3.61 (12:30) 0.6 0 0 0.2 0.4
30-01-2020 11.2 (15:00) 8.5 (00:00) 9.8 7.22 (11:40) 3.06 (00:30) 0 0 0 0 0
29-01-2020 12.3 (15:30) 10 (00:00) 11.2 8.61 (16:30) 3.06 (21:00) 0.8 0 0.2 0.6 0
28-01-2020 12.2 (13:30) 9.6 (00:00) 10.9 9.17 (00:30) 4.72 (00:30) 5.6 1.2 2.6 1.8 0
27-01-2020 11.3 (17:00) 5.2 (00:00) 8.3 13.06 (13:50) 5.56 (13:00) 0.2 0 0.2 0 0
26-01-2020 9.5 (14:30) 1.3 (00:00) 5.4 5.28 (14:30) 2.5 (14:20) 0 0 0 0 0
25-01-2020 8.1 (16:20) 2.2 (00:00) 5.2 3.89 (10:30) 2.5 (10:00) 1.2 0 0.8 0.4 0
24-01-2020 7.9 (15:50) 3 (00:00) 5.5 3.33 (11:50) 2.22 (11:50) 1.2 0 0.8 0.4 0
23-01-2020 11.2 (14:50) -0.3 (00:00) 5.4 5.28 (07:50) 3.06 (01:20) 0 0 0 0 0
22-01-2020 11.4 (15:10) 3.4 (00:00) 7.4 14.17 (01:10) 8.06 (01:10) 0 0 0 0 0

Gráficas

Temp. máximas Temp. mínimas Temp. medias Precipitaciones Rachas de viento máximas Velocidades máximas media en intervalos de 10 minutos

Datos horarios

Fecha y hora oficial Temperatura (ºC) Velocidad del viento (km/h) Dirección del viento Racha (km/h) Dirección de racha Precipitación (mm) Presión (hPa) Tendencia (hPa) Humedad (%)
2020-02-20 23:00:00 5 3 Norte 8 Nordeste 0 949.5 1.1 75
2020-02-20 22:00:00 7 3 Norte 5 Norte 0 948.8 0.7 67
2020-02-20 21:00:00 8.5 2 Este 5 Norte 0 948.4 0.5 61
2020-02-20 20:00:00 10.4 3 Este 6 Nordeste 0 948.4 0.7 55
2020-02-20 19:00:00 12 3 Nordeste 7 Este 0 948.1 0.4 52
2020-02-20 18:00:00 13.7 3 Este 10 Sudeste 0 947.9 0.1 48
2020-02-20 17:00:00 15.2 5 Este 12 Este 0 947.7 -0.6 48
2020-02-20 16:00:00 15.7 5 Nordeste 12 Este 0 947.7 -1.2 48
2020-02-20 15:00:00 14.9 5 Nordeste 14 Norte 0 947.8 -1.3 54
2020-02-20 14:00:00 12.8 5 Norte 11 Noroeste 0 948.3 -1.1 59
2020-02-20 13:00:00 10.6 3 Sur 9 Sur 0 948.9 -0.2 63
2020-02-20 12:00:00 7.4 4 Sudeste 9 Sur 0 949.1 0.7 70
2020-02-20 11:00:00 3.2 3 Este 8 Nordeste 0 949.4 1.5 87
2020-02-20 10:00:00 -0.2 3 Norte 6 Norte 0 949.1 1.3 96
2020-02-20 09:00:00 -1.7 2 Norte 4 Norte 0 948.4 0.6 94
2020-02-20 08:00:00 -1.8 3 Nordeste 5 Este 0 947.9 0.1 94
2020-02-20 07:00:00 -1.5 4 Nordeste 6 Este 0 947.8 -0.5 93
2020-02-20 06:00:00 -0.8 2 Norte 3 Norte 0 947.8 -1.4 92
2020-02-20 05:00:00 -0.5 2 Nordeste 4 Nordeste 0 947.8 -1.8 92
2020-02-20 04:00:00 -0.1 3 Nordeste 5 Nordeste 0 948.3 -1.7 91
2020-02-20 03:00:00 0.5 2 Norte 4 Norte 0 949.2 -1.3 90
2020-02-20 02:00:00 1.4 0 Calma 5 Sur 0 949.6 -1.1 89
2020-02-20 01:00:00 2.5 0 Calma 4 Norte 0 950 -1 81
2020-02-20 00:00:00 3.8 0 Calma 5 Sur 0 950.5 -0.8 79
2020-02-19 23:00:00 4.6 2 Norte 3 Norte 0 950.7 -0.7 76
2020-02-19 22:00:00 5.5 0 Calma 6 Norte 0 951 -0.3 71
2020-02-19 21:00:00 6.6 3 Noroeste 5 Nordeste 0 951.3 -0.3 69
2020-02-19 20:00:00 8.2 2 Norte 5 Norte 0 951.4 -0.6 63
2020-02-19 19:00:00 10.1 3 Nordeste 8 Sur 0 951.3 -1.4 56
2020-02-19 18:00:00 11.2 3 Sudeste 10 Este 0 951.6 -2.1 54
2020-02-19 17:00:00 12.5 5 Sur 12 Sur 0 952 -2.9 46
2020-02-19 16:00:00 13 4 Sudeste 14 Este 0 952.7 -3.2 47
2020-02-19 15:00:00 11.8 8 Este 15 Este 0 953.7 -2.9 55
2020-02-19 14:00:00 10.9 6 Este 14 Este 0 954.9 -2 58
2020-02-19 13:00:00 8.8 6 Este 12 Nordeste 0 955.9 -1.3 67
2020-02-19 12:00:00 6 4 Este 8 Nordeste 0 956.6 0.3 75
2020-02-19 11:00:00 2.9 4 Nordeste 9 Este 0 956.9 1 85
2020-02-19 10:00:00 0 5 Nordeste 9 Norte 0 957.2 1.4 93
2020-02-19 09:00:00 -1.3 3 Este 6 Nordeste 0 956.3 1.1 94
2020-02-19 08:00:00 -1.5 3 Este 7 Norte 0 955.9 0.9 92
2020-02-19 07:00:00 -1.3 3 Norte 9 Nordeste 0 955.8 0.6 93
2020-02-19 06:00:00 -1.1 5 Nordeste 8 Norte 0 955.2 -0.5 93
2020-02-19 05:00:00 -0.6 5 Nordeste 8 Nordeste 0 955 -0.9 91
2020-02-19 04:00:00 0.2 2 Nordeste 5 Norte 0 955.2 -1.1 90
2020-02-19 03:00:00 0.9 3 Norte 6 Norte 0 955.7 -0.8 89
2020-02-19 02:00:00 1.6 3 Norte 5 Nordeste 0 955.9 -0.1 87
2020-02-19 01:00:00 2.1 2 Nordeste 9 Nordeste 0 956.3 0.5 83
2020-02-19 00:00:00 3.2 4 Nordeste 6 Nordeste 0 956.5 0.8 80
2020-02-18 23:00:00 3.7 3 Norte 5 Norte 0 956 0.5 79
2020-02-18 22:00:00 4.6 3 Nordeste 7 Nordeste 0 955.8 1.4 75
2020-02-18 21:00:00 5.7 3 Norte 6 Este 0 955.7 1.4 73
2020-02-18 20:00:00 7 2 Nordeste 10 Nordeste 0 955.5 1.9 67
2020-02-18 19:00:00 8.2 5 Este 13 Nordeste 0 954.4 0.4 61
2020-02-18 18:00:00 9.6 9 Nordeste 18 Nordeste 0 954.3 -0.1 56
2020-02-18 17:00:00 10.7 8 Nordeste 22 Norte 0 953.6 -1.4 54
2020-02-18 16:00:00 11.6 11 Este 19 Norte 0 954 -1.8 51
2020-02-18 15:00:00 11.6 8 Norte 22 Este 0 954.4 -1.9 54
2020-02-18 14:00:00 10.2 13 Nordeste 24 Nordeste 0 955 -1.3 60
2020-02-18 13:00:00 9.9 12 Este 25 Nordeste 0 955.8 -0.1 67
2020-02-18 12:00:00 8.4 12 Nordeste 21 Nordeste 0 956.3 0.8 76
2020-02-18 11:00:00 6.1 11 Nordeste 19 Nordeste 0 956.3 1.4 83
2020-02-18 10:00:00 3.8 8 Nordeste 15 Nordeste 0 955.9 1.2 94
2020-02-18 09:00:00 2.4 5 Nordeste 13 Nordeste 0 955.5 1 96
2020-02-18 08:00:00 1.7 7 Norte 11 Norte 0 954.9 0.5 97
2020-02-18 07:00:00 1.3 4 Norte 6 Norte 0 954.7 0.2 97
2020-02-18 06:00:00 1.1 3 Norte 9 Norte 0 954.5 -0.5 96
2020-02-18 05:00:00 1.2 3 Noroeste 10 Norte 0 954.4 -0.8 94
2020-02-18 04:00:00 1.7 5 Nordeste 10 Nordeste 0 954.5 -0.5 94
2020-02-18 03:00:00 2.5 4 Norte 10 Norte 0 955 0.1 91
2020-02-18 02:00:00 3.3 4 Norte 17 Norte 0 955.2 0.4 85
2020-02-18 01:00:00 4.1 7 Norte 19 Norte 0 955 0.7 81
2020-02-18 00:00:00 4.4 4 Noroeste 16 Norte 0 954.9 1 79
2020-02-17 23:00:00 5.6 3 Oeste 10 Norte 0 954.8 1.6 73
2020-02-17 22:00:00 6.8 6 Norte 12 Norte 0 954.3 1.7 69
2020-02-17 21:00:00 8.2 7 Noroeste 15 Norte 0 953.9 2.2 63
2020-02-17 20:00:00 10.5 7 Norte 13 Norte 0 953.2 1.9 57
2020-02-17 19:00:00 11.8 7 Norte 19 Norte 0 952.6 1.6 59
2020-02-17 18:00:00 13.3 5 Oeste 19 Noroeste 0 951.7 0.8 47
2020-02-17 17:00:00 14.1 6 Oeste 23 Oeste 0 951.3 0.1 47
2020-02-17 16:00:00 14.9 8 Oeste 23 Oeste 0 951 -0.6 45
2020-02-17 15:00:00 14.9 8 Oeste 25 Oeste 0 950.9 -0.3 47
2020-02-17 14:00:00 13.7 9 Oeste 27 Oeste 0 951.2 0.6 56
2020-02-17 13:00:00 12.3 7 Oeste 22 Oeste 0 951.6 2 67
2020-02-17 12:00:00 12.6 8 Oeste 22 Oeste 0 951.2 2.8 76
2020-02-17 11:00:00 11.9 7 Oeste 18 Noroeste 0 950.6 3 84
2020-02-17 10:00:00 11.9 7 Oeste 23 Sudoeste 0 949.6 2.5 93
2020-02-17 09:00:00 11.9 8 Sudoeste 21 Sudoeste 0 948.4 1.4 91
2020-02-17 08:00:00 11.7 8 Sudoeste 24 Sudoeste 0 947.6 0.2 89
2020-02-17 07:00:00 11.3 8 Sudoeste 24 Sudoeste 0 947.1 -0.8 88
2020-02-17 06:00:00 10.7 11 Sudoeste 34 Sur 0 947 -1.4 87
2020-02-17 05:00:00 11 10 Sudoeste 25 Sudoeste 0 947.4 -1.4 85
2020-02-17 04:00:00 11.2 11 Sudoeste 25 Sudoeste 0 947.9 -0.9 84
2020-02-17 03:00:00 11.3 8 Sudoeste 24 Sudoeste 0 948.4 -0.4 84
2020-02-17 02:00:00 11 7 Sudoeste 20 Sudoeste 0 948.8 0 85
2020-02-17 01:00:00 11 5 Sudoeste 15 Sudoeste 0 948.8 -0.4 85
2020-02-17 00:00:00 11.5 8 Sudoeste 22 Sudoeste 0 948.8 -0.1 84
2020-02-16 23:00:00 12 9 Sudoeste 28 Sudoeste 0 948.8 0.2 79
2020-02-16 22:00:00 12.5 12 Sudoeste 25 Sudoeste 0 949.2 1.2 77
2020-02-16 21:00:00 12.6 13 Sudoeste 28 Sudoeste 0 948.9 1.3 76
2020-02-16 20:00:00 12.6 7 Sudoeste 21 Sudoeste 0 948.6 1 78
2020-02-16 19:00:00 13.3 10 Sudoeste 27 Sudoeste 0 948 0.2 73
2020-02-16 18:00:00 14.2 12 Sudoeste 33 Sudoeste 0 947.6 -0.2 69
2020-02-16 17:00:00 14.6 13 Sudoeste 33 Oeste 0 947.6 -0.7 63
2020-02-16 16:00:00 15.3 10 Oeste 34 Oeste 0 947.8 -1.2 64
2020-02-16 15:00:00 14.9 13 Oeste 38 Sudoeste 0 947.8 -1.1 68
2020-02-16 14:00:00 14.6 10 Sudoeste 25 Oeste 0 948.3 -0.6 70
2020-02-16 13:00:00 13.9 10 Oeste 27 Oeste 0 949 0.1 71
2020-02-16 12:00:00 13.4 12 Oeste 28 Sudoeste 0 948.9 0 71
2020-02-16 11:00:00 12.4 10 Sudoeste 30 Sudoeste 0 948.9 0.7 77
2020-02-16 10:00:00 10.2 12 Sudoeste 20 Sudoeste 0 948.9 0.7 87
2020-02-16 09:00:00 9 7 Oeste 18 Sudoeste 0 948.9 0.5 92
2020-02-16 08:00:00 8.8 9 Sudoeste 19 Sudoeste 0 948.2 -0.4 92
2020-02-16 07:00:00 9.2 5 Sudoeste 25 Oeste 0 948.2 -0.6 92
2020-02-16 06:00:00 8.5 7 Oeste 22 Oeste 0 948.4 -0.8 94
2020-02-16 05:00:00 7.9 8 Sudoeste 21 Sudoeste 0 948.6 -0.5 94
2020-02-16 04:00:00 7.6 6 Sudoeste 17 Sudoeste 0 948.8 -0.3 91
2020-02-16 03:00:00 7.8 6 Sudoeste 15 Oeste 0 949.2 0.1 90
2020-02-16 02:00:00 7.9 4 Sudoeste 12 Sudoeste 0 949.1 0.4 90
2020-02-16 01:00:00 8.5 4 Sur 14 Sudoeste 0 949.1 -0.3 88
2020-02-16 00:00:00 9 4 Sudoeste 14 Oeste 0 949.1 -0.3 87
2020-02-15 23:00:00 9.1 5 Sudoeste 14 Sur 0 948.7 -0.4 87
2020-02-15 22:00:00 9.5 4 Sur 13 Sudoeste 0 949.4 1.1 87
2020-02-15 21:00:00 10.3 3 Sur 10 Sudeste 0 949.4 1.6 83
2020-02-15 20:00:00 11.6 3 Oeste 8 Sudoeste 0 949.1 1.8 78
2020-02-15 19:00:00 13.2 3 Oeste 16 Sudoeste 0 948.3 0.8 70
2020-02-15 18:00:00 14.6 7 Oeste 21 Oeste 0 947.8 -0.5 66
2020-02-15 17:00:00 15.2 5 Sudoeste 14 Oeste 0 947.3 -1.5 64
2020-02-15 16:00:00 14 5 Sudeste 10 Sur 0 947.5 -2.4 78
2020-02-15 15:00:00 10.9 4 Este 11 Sur 0 948.3 -1.8 86
2020-02-15 14:00:00 8.6 5 Sudeste 11 Sudeste 0 948.8 -1.5 89
2020-02-15 13:00:00 6.8 3 Norte 8 Sur 0 949.9 0.1 97
2020-02-15 12:00:00 5.4 4 Este 8 Sur 0 950.1 1.4 100
2020-02-15 11:00:00 4.3 3 Norte 7 Norte 0 950.3 1.8 100
2020-02-15 10:00:00 3.5 3 Norte 6 Norte 0 949.8 1.4 100
2020-02-15 09:00:00 3 4 Sudeste 10 Sur 0 948.7 0.7 100
2020-02-15 08:00:00 3.3 5 Este 9 Este 0 948.5 0.8 100
2020-02-15 07:00:00 3.3 3 Norte 9 Norte 0 948.4 0.1 100
2020-02-15 06:00:00 3.2 6 Norte 9 Norte 0 948 -0.4 100
2020-02-15 05:00:00 3.2 6 Nordeste 13 Nordeste 0 947.7 -0.6 99
2020-02-15 04:00:00 3.8 4 Norte 9 Norte 0 948.3 0.1 99
2020-02-15 03:00:00 3.6 4 Norte 7 Norte 0 948.4 0 96
2020-02-15 02:00:00 4.2 3 Norte 6 Este 0 948.3 -0.3 95
2020-02-15 01:00:00 4.7 4 Nordeste 7 Nordeste 0 948.2 -0.5 93
2020-02-15 00:00:00 5.9 3 Nordeste 5 Nordeste 0 948.4 -0.2 93
2020-02-14 23:00:00 7.2 3 Sur 5 Sur 0 948.6 0.1 89
2020-02-14 22:00:00 8.3 2 Noroeste 8 Sudeste 0 948.7 0.4 84
2020-02-14 21:00:00 9.5 4 Sur 8 Sudeste 0 948.6 0.6 83
2020-02-14 20:00:00 10.3 5 Sudeste 9 Sudeste 0 948.5 0.6 80
2020-02-14 19:00:00 11.2 2 Sudeste 10 Sur 0 948.3 0 77
2020-02-14 18:00:00 12.2 6 Sudeste 10 Sudeste 0 948 -0.6 73
2020-02-14 17:00:00 13.3 5 Sudeste 16 Sur 0 947.9 -1.6 70
2020-02-14 16:00:00 14.1 4 Sudeste 12 Este 0 948.3 -1.6 69
2020-02-14 15:00:00 12.9 6 Sudeste 11 Sudeste 0 948.6 -1.7 75
2020-02-14 14:00:00 10.2 4 Sur 9 Sur 0 949.5 -0.9 82
2020-02-14 13:00:00 8.3 3 Nordeste 11 Norte 0 949.9 -0.3 92
2020-02-14 12:00:00 6.7 2 Norte 7 Oeste 0 950.3 0.3 98
2020-02-14 11:00:00 5.6 4 Noroeste 9 Oeste 0 950.4 0.9 100
2020-02-14 10:00:00 4.6 3 Este 6 Sur 0 950.2 1.3 100
2020-02-14 09:00:00 3.4 0 Calma 4 Noroeste 0 950 1.5 100
2020-02-14 08:00:00 2.9 2 Noroeste 4 Norte 0 949.5 1 100
2020-02-14 07:00:00 2.8 3 Norte 8 Nordeste 0 948.9 0.2 96
2020-02-14 06:00:00 4.6 2 Noroeste 6 Oeste 0 948.5 -0.5 94
2020-02-14 05:00:00 5.9 2 Noroeste 8 Oeste 0 948.5 -0.5 94
2020-02-14 04:00:00 6.6 3 Oeste 10 Sudoeste 0 948.7 -0.4 93
2020-02-14 03:00:00 7 3 Sudoeste 8 Oeste 0 949 0 94
2020-02-14 02:00:00 7.2 3 Sudoeste 9 Sudoeste 0 949 0 94
2020-02-14 01:00:00 8.2 4 Oeste 15 Oeste 0 949.1 0.3 92
2020-02-14 00:00:00 8.7 5 Oeste 17 Oeste 0 949 0.6 91
2020-02-13 23:00:00 9.3 6 Oeste 17 Sudoeste 0 949 0.9 90
2020-02-13 22:00:00 10 7 Sudoeste 19 Sudoeste 0 948.8 1.5 87
2020-02-13 21:00:00 10.6 9 Oeste 22 Sudoeste 0 948.4 1.5 84
2020-02-13 20:00:00 11 8 Sudoeste 22 Sudoeste 0 948.1 1 82
2020-02-13 19:00:00 12 6 Sudoeste 21 Oeste 0 947.3 0.1 75
2020-02-13 18:00:00 12.8 11 Oeste 22 Oeste 0 946.9 0.1 69
2020-02-13 17:00:00 13.3 8 Oeste 26 Noroeste 0 947.1 -0.1 68
2020-02-13 16:00:00 13.9 8 Oeste 24 Noroeste 0 947.2 -0.2 67
2020-02-13 15:00:00 13.9 9 Oeste 19 Oeste 0 946.8 -0.7 67
2020-02-13 14:00:00 13 7 Oeste 23 Sudoeste 0 947.2 0.7 73
2020-02-13 13:00:00 12.7 10 Sudoeste 27 Sudoeste 0 947.4 0.8 74
2020-02-13 12:00:00 11.4 9 Oeste 22 Oeste 0 947.5 1.3 80
2020-02-13 11:00:00 11.2 6 Sudoeste 21 Oeste 0 946.5 0.4 81
2020-02-13 10:00:00 10.8 5 Sudoeste 23 Sudoeste 0 946.6 1.6 86
2020-02-13 09:00:00 10.3 6 Sudoeste 17 Oeste 0 946.2 1 89
2020-02-13 08:00:00 10.3 6 Oeste 21 Sudoeste 0 946.1 1.5 88
2020-02-13 07:00:00 10.5 11 Sudoeste 26 Oeste 0 945 0.5 88
2020-02-13 06:00:00 10.8 9 Sudoeste 22 Sudoeste 0 945.2 0.4 88
2020-02-13 05:00:00 10.8 10 Oeste 22 Oeste 0 944.6 -0.5 90
2020-02-13 04:00:00 11.1 8 Sudoeste 19 Oeste 0 944.5 -0.8 91
2020-02-13 03:00:00 11 6 Sudoeste 15 Sudoeste 0 944.8 -0.4 91
2020-02-13 02:00:00 10.7 4 Sudoeste 15 Sudoeste 0 945.1 0 90
2020-02-13 01:00:00 10.9 4 Sudoeste 13 Sudoeste 0 945.3 0.2 86
2020-02-13 00:00:00 11.5 4 Oeste 11 Oeste 0 945.2 0.5 83
2020-02-12 23:00:00 12.1 4 Sudoeste 11 Sudoeste 0 945.1 0.2 81
2020-02-12 22:00:00 12.4 4 Oeste 10 Oeste 0 945.1 0.4 81
2020-02-12 21:00:00 13 4 Oeste 14 Noroeste 0 944.7 0.1 79
2020-02-12 20:00:00 13.4 5 Sudoeste 12 Sudoeste 0 944.9 0.1 78
2020-02-12 19:00:00 13.7 4 Sur 9 Sur 0 944.7 -0.7 75
2020-02-12 18:00:00 14.2 5 Sur 12 Sur 0 944.6 -1.1 71
2020-02-12 17:00:00 14.9 4 Sur 12 Sudoeste 0 944.8 -1.4 66
2020-02-12 16:00:00 15.1 4 Sur 10 Sudoeste 0 945.4 -1.7 65
2020-02-12 15:00:00 15.1 4 Este 9 Este 0 945.7 -1.9 67
2020-02-12 14:00:00 14.6 4 Este 12 Este 0 946.2 -1.5 72
2020-02-12 13:00:00 12.7 4 Este 10 Norte 0 947.1 -0.7 78
2020-02-12 12:00:00 12 5 Nordeste 11 Nordeste 0 947.6 -0.2 83
2020-02-12 11:00:00 10.1 3 Nordeste 5 Norte 0 947.7 0.2 92
2020-02-12 10:00:00 8 3 Norte 6 Nordeste 0 947.8 0.6 99
2020-02-12 09:00:00 7.4 3 Norte 5 Nordeste 0 947.8 0.6 98
2020-02-12 08:00:00 7.4 3 Nordeste 6 Norte 0 947.5 0.3 97
2020-02-12 07:00:00 8.1 0 Calma 7 Sur 0 947.2 -0.4 96
2020-02-12 06:00:00 8.7 3 Noroeste 5 Noroeste 0 947.2 -0.6 95
2020-02-12 05:00:00 9.4 0 Calma 4 Sudoeste 0 947.2 -0.4 94
2020-02-12 04:00:00 9.9 0 Calma 5 Nordeste 0 947.6 -0.2 93
2020-02-12 03:00:00 10.2 4 Noroeste 16 Norte 0 947.8 -0.4 94
2020-02-12 02:00:00 10.6 7 Norte 17 Nordeste 0 947.6 -1 92
2020-02-12 01:00:00 11 7 Sudoeste 12 Sudoeste 0.2 947.8 -1 88
2020-02-12 00:00:00 11.3 4 Oeste 11 Sudoeste 0.2 948.2 -0.6 89
2020-02-11 23:00:00 11.7 3 Sudoeste 6 Sudoeste 0 948.6 -0.1 87
2020-02-11 22:00:00 12 2 Noroeste 9 Oeste 0 948.8 0.6 83
2020-02-11 21:00:00 12.5 5 Oeste 11 Oeste 0 948.8 0.4 79
2020-02-11 20:00:00 12.8 4 Sudoeste 10 Sudoeste 0 948.7 0 77
2020-02-11 19:00:00 13.3 3 Oeste 12 Noroeste 0 948.2 -0.9 76
2020-02-11 18:00:00 13.9 5 Sudoeste 13 Oeste 0 948.4 -1.1 73
2020-02-11 17:00:00 14.6 6 Sudoeste 13 Sudoeste 0 948.7 -1.8 71
2020-02-11 16:00:00 15 5 Oeste 15 Sudoeste 0 949.1 -2.2 67
2020-02-11 15:00:00 15 9 Sudoeste 16 Sudoeste 0 949.5 -2.2 67
2020-02-11 14:00:00 12.6 6 Oeste 17 Sudoeste 0 950.5 -1.1 79
2020-02-11 13:00:00 12.3 4 Oeste 12 Sudoeste 0 951.3 -0.1 80
2020-02-11 12:00:00 11.5 5 Sudoeste 14 Oeste 0 951.7 0.5 83
2020-02-11 11:00:00 10.1 5 Oeste 14 Sudoeste 0 951.6 0.6 88
2020-02-11 10:00:00 9.1 5 Oeste 15 Sudoeste 0 951.4 0.4 92
2020-02-11 09:00:00 8.9 3 Oeste 12 Oeste 0 951.2 -0.2 95
2020-02-11 08:00:00 8.8 4 Oeste 15 Noroeste 0 951 -0.5 97
2020-02-11 07:00:00 8.6 5 Oeste 18 Oeste 0 951 -1.2 99
2020-02-11 06:00:00 8 6 Oeste 16 Sudoeste 0 951.4 -0.9 98
2020-02-11 05:00:00 8.2 5 Sudoeste 14 Sudoeste 0 951.5 -1.3 95
2020-02-11 04:00:00 8.8 6 Sudoeste 17 Oeste 0 952.2 -1.2 93
2020-02-11 03:00:00 9.4 4 Oeste 13 Oeste 0 952.3 -1.3 92
2020-02-11 02:00:00 9.8 5 Sudoeste 19 Sudoeste 0 952.8 -1 91
2020-02-11 01:00:00 10.3 4 Sudoeste 14 Oeste 0 953.4 -0.4 90
2020-02-11 00:00:00 11 6 Sudoeste 19 Sudoeste 0 953.6 -0.2 87
2020-02-10 23:00:00 11.5 9 Sudoeste 23 Noroeste 0 953.8 0.3 85
2020-02-10 22:00:00 11.8 6 Oeste 24 Oeste 0 953.8 0.9 81
2020-02-10 21:00:00 12.1 9 Oeste 24 Sudoeste 0 953.8 0.9 80
2020-02-10 20:00:00 12.4 7 Oeste 27 Sudoeste 0 953.5 0.8 79
2020-02-10 19:00:00 13.4 13 Oeste 27 Sudoeste 0 952.9 0.2 73
2020-02-10 18:00:00 14.2 12 Oeste 29 Oeste 0 952.9 -0.3 70
2020-02-10 17:00:00 14.8 13 Oeste 33 Sudoeste 0 952.7 -1.5 69
2020-02-10 16:00:00 15.2 13 Sudoeste 30 Sudoeste 0 952.7 -2.3 69
2020-02-10 15:00:00 14.4 12 Sudoeste 27 Sudoeste 0 953.2 -2 75
2020-02-10 14:00:00 14.4 11 Oeste 25 Sudoeste 0 954.2 -0.9 73
2020-02-10 13:00:00 13.6 10 Oeste 25 Oeste 0 955 0 80
2020-02-10 12:00:00 13.1 9 Oeste 21 Oeste 0 955.2 0.8 82
2020-02-10 11:00:00 12.4 8 Oeste 22 Oeste 0 955.1 1.1 89
2020-02-10 10:00:00 11.5 8 Sudoeste 22 Sudoeste 0 955 0.9 92
2020-02-10 09:00:00 11 6 Sudoeste 18 Sudoeste 0 954.4 0.7 93
2020-02-10 08:00:00 10.9 7 Sudoeste 19 Oeste 0 954 0.3 92
2020-02-10 07:00:00 11.1 8 Sudoeste 22 Sudoeste 0 954.1 0.2 91
2020-02-10 06:00:00 11.1 8 Sudoeste 21 Oeste 0 953.7 0.2 91
2020-02-10 05:00:00 11 8 Sudoeste 21 Oeste 0 953.7 0.1 90
2020-02-10 04:00:00 11.1 6 Oeste 25 Sudoeste 0 953.9 0.2 88
2020-02-10 03:00:00 11 8 Oeste 20 Oeste 0 953.5 -0.5 87
2020-02-10 02:00:00 11.1 8 Sudoeste 26 Sudoeste 0 953.6 -0.3 85
2020-02-10 01:00:00 11.1 12 Sudoeste 22 Sudoeste 0 953.7 0.1 84
2020-02-10 00:00:00 11.2 9 Sudoeste 25 Sudoeste 0 954 0.5 83
2020-02-09 23:00:00 11.4 8 Sudoeste 22 Sudoeste 0 953.9 0.9 82
2020-02-09 22:00:00 11.7 6 Sudoeste 21 Sudoeste 0 953.6 1.5 79
2020-02-09 21:00:00 12.2 6 Sudoeste 20 Sudoeste 0 953.5 2 78
2020-02-09 20:00:00 12.5 7 Sudoeste 18 Noroeste 0 953 1.5 76
2020-02-09 19:00:00 12.7 6 Sudoeste 28 Oeste 0 952.1 1 73
2020-02-09 18:00:00 13.1 9 Sudoeste 25 Sur 0 951.5 0.3 69
2020-02-09 17:00:00 13.5 8 Sudoeste 23 Sudoeste 0 951.5 0.4 66
2020-02-09 16:00:00 13.5 11 Oeste 29 Sudoeste 0 951.1 -0.8 64
2020-02-09 15:00:00 13.5 10 Oeste 30 Oeste 0 951.2 -1 63
2020-02-09 14:00:00 13.3 10 Oeste 26 Sur 0 951.1 -1.1 59
2020-02-09 13:00:00 12.7 10 Oeste 26 Noroeste 0 951.9 0.3 66
2020-02-09 12:00:00 11.9 11 Sudoeste 26 Oeste 0 952.2 1.3 75
2020-02-09 11:00:00 10.3 5 Oeste 19 Noroeste 0 952.2 1.9 87
2020-02-09 10:00:00 9.6 5 Sudoeste 13 Sudoeste 0 951.6 1.3 91
2020-02-09 09:00:00 8.8 3 Sudoeste 13 Sudoeste 0 950.9 1 94
2020-02-09 08:00:00 8.7 6 Sudoeste 13 Sudoeste 0 950.3 0.5 95
2020-02-09 07:00:00 8 4 Sudoeste 12 Sudoeste 0 950.3 0.8 97
2020-02-09 06:00:00 6.8 0 Calma 5 Sur 0 949.9 0.7 93
2020-02-09 05:00:00 6.5 0 Calma 5 Sur 0 949.8 0.4 93
2020-02-09 04:00:00 6.1 2 Noroeste 5 Sudeste 0 949.5 0.1 93
2020-02-09 03:00:00 6.3 3 Sur 10 Sur 0 949.2 -0.1 94
2020-02-09 02:00:00 5.3 3 Sur 6 Sudoeste 0 949.4 0.1 92
2020-02-09 01:00:00 5.9 3 Sur 10 Sudoeste 0 949.4 0.3 90
2020-02-09 00:00:00 7.3 4 Sudoeste 12 Sudoeste 0 949.3 0.5 87
2020-02-08 23:00:00 7.6 4 Sudoeste 12 Oeste 0 949.3 1 84
2020-02-08 22:00:00 8.5 5 Oeste 10 Sudoeste 0 949.1 1.5 80
2020-02-08 21:00:00 9.3 2 Oeste 11 Sudoeste 0 948.8 1.7 74
2020-02-08 20:00:00 10.1 3 Sudoeste 12 Oeste 0 948.3 1.6 71
2020-02-08 19:00:00 11.3 4 Oeste 18 Oeste 0 947.6 1 64
2020-02-08 18:00:00 12.3 6 Oeste 21 Oeste 0 947.1 0.7 58
2020-02-08 17:00:00 12.9 6 Oeste 20 Oeste 0 946.7 0 59
2020-02-08 16:00:00 14.1 8 Oeste 22 Oeste 0 946.6 -0.5 51
2020-02-08 15:00:00 14.3 10 Sudoeste 25 Oeste 0 946.4 -1 53
2020-02-08 14:00:00 13.4 8 Oeste 24 Oeste 0 946.7 -0.5 60
2020-02-08 13:00:00 12 6 Oeste 20 Oeste 0 947.1 0.3 67
2020-02-08 12:00:00 11.7 8 Sudoeste 19 Sudoeste 0 947.4 1.5 78
2020-02-08 11:00:00 9.1 6 Sudoeste 15 Sudoeste 0.2 947.2 1.6 94
2020-02-08 10:00:00 8.9 3 Oeste 15 Noroeste 1.4 946.8 1.4 93
2020-02-08 09:00:00 9.3 4 Sudoeste 12 Oeste 0.2 945.9 0.4 93
2020-02-08 08:00:00 9.2 6 Sudoeste 13 Sudoeste 0 945.6 0 91
2020-02-08 07:00:00 9.1 6 Sudoeste 13 Sudoeste 0 945.4 -0.2 90
2020-02-08 06:00:00 8.9 5 Sudoeste 15 Sudoeste 0 945.5 -0.6 89
2020-02-08 05:00:00 8.9 5 Sudoeste 12 Sudoeste 0 945.6 -0.6 89
2020-02-08 04:00:00 8.6 3 Sudoeste 11 Sudoeste 0 945.6 -0.8 89
2020-02-08 03:00:00 8.8 4 Sudoeste 15 Oeste 0 946.1 -0.3 88
2020-02-08 02:00:00 8.9 4 Sudoeste 14 Sudoeste 0 946.2 -0.1 87
2020-02-08 01:00:00 9.3 8 Sudoeste 15 Sudoeste 0 946.4 0.5 86
2020-02-08 00:00:00 9.7 5 Sudoeste 18 Oeste 0 946.4 0.5 84
2020-02-07 23:00:00 9.8 4 Sudoeste 14 Sudoeste 0 946.3 0.6 83
2020-02-07 22:00:00 10.1 4 Sudoeste 14 Sudoeste 0 945.9 0.3 81
2020-02-07 21:00:00 10.1 0 Calma 5 Oeste 0 945.9 0.6 79
2020-02-07 20:00:00 11.8 2 Sudoeste 9 Oeste 0 945.7 0.7 73
2020-02-07 19:00:00 12.7 4 Oeste 10 Noroeste 0 945.6 0.7 68
2020-02-07 18:00:00 13.4 3 Oeste 17 Sudoeste 0 945.3 0.1 63
2020-02-07 17:00:00 14.2 7 Oeste 21 Oeste 0 945 -0.8 57
2020-02-07 16:00:00 14.9 5 Oeste 16 Sudoeste 0 944.9 -1.7 57
2020-02-07 15:00:00 15.1 9 Sudoeste 19 Sudoeste 0 945.2 -2.2 54
2020-02-07 14:00:00 12.7 3 Este 8 Sudeste 0 945.8 -1.5 75
2020-02-07 13:00:00 10.4 5 Sudeste 11 Sudeste 0 946.6 -0.2 81
2020-02-07 12:00:00 7.1 3 Nordeste 6 Nordeste 0 947.4 1.2 88
2020-02-07 11:00:00 4.7 3 Nordeste 8 Norte 0 947.3 1.5 95
2020-02-07 10:00:00 3.4 3 Norte 5 Norte 0 946.8 1.3 97
2020-02-07 09:00:00 3 2 Nordeste 5 Sur 0 946.2 0.9 98
2020-02-07 08:00:00 2.5 3 Sur 5 Nordeste 0 945.8 0.8 99
2020-02-07 07:00:00 2.4 3 Este 8 Este 0 945.5 0.4 96
2020-02-07 06:00:00 2.8 2 Nordeste 5 Este 0 945.3 -0.1 95
2020-02-07 05:00:00 3.4 0 Calma 4 Noroeste 0 945 -0.7 96
2020-02-07 04:00:00 3.7 2 Sudoeste 5 Sur 0 945.1 -0.7 93
2020-02-07 03:00:00 4.2 0 Calma 3 Sudoeste 0 945.4 -0.3 92
2020-02-07 02:00:00 4.5 0 Calma 5 Noroeste 0 945.7 0 91
2020-02-07 01:00:00 5 2 Noroeste 5 Norte 0 945.8 0.3 89
2020-02-07 00:00:00 5.8 0 Calma 9 Oeste 0 945.7 0.5 86
2020-02-06 23:00:00 6.6 3 Oeste 7 Oeste 0 945.7 0.7 83
2020-02-06 22:00:00 7.3 0 Calma 6 Sudeste 0 945.5 0.7 80
2020-02-06 21:00:00 8 3 Sur 5 Sur 0 945.2 0.7 77
2020-02-06 20:00:00 9.2 2 Nordeste 6 Este 0 945 0.5 72
2020-02-06 19:00:00 10.4 2 Este 4 Nordeste 0 944.8 0.1 65
2020-02-06 18:00:00 11.5 3 Nordeste 6 Norte 0 944.5 -0.5 65
2020-02-06 17:00:00 12.5 3 Nordeste 8 Norte 0 944.5 -1.5 56
2020-02-06 16:00:00 13.1 3 Nordeste 7 Este 0 944.7 -2.1 57
2020-02-06 15:00:00 11.8 3 Este 9 Nordeste 0 945 -2.4 63
2020-02-06 14:00:00 9.8 2 Nordeste 8 Nordeste 0 946 -1.3 68
2020-02-06 13:00:00 7.6 5 Nordeste 10 Nordeste 0 946.8 -0.5 76
2020-02-06 12:00:00 5.5 3 Nordeste 9 Norte 0 947.4 0.5 83
2020-02-06 11:00:00 2.4 4 Nordeste 9 Este 0 947.3 0.5 93
2020-02-06 10:00:00 0 3 Nordeste 5 Norte 0 947.3 0.8 98
2020-02-06 09:00:00 -0.7 0 Calma 4 Nordeste 0 946.9 0.3 96
2020-02-06 08:00:00 -0.4 3 Norte 5 Noroeste 0 946.8 0.1 96
2020-02-06 07:00:00 -0.2 3 Noroeste 5 Nordeste 0 946.5 -0.2 97
2020-02-06 06:00:00 -0.1 2 Nordeste 6 Nordeste 0 946.6 -0.2 96
2020-02-06 05:00:00 0.2 4 Nordeste 8 Nordeste 0 946.7 -0.1 95
2020-02-06 04:00:00 0.7 2 Nordeste 6 Norte 0 946.7 -0.3 95
2020-02-06 03:00:00 1.1 3 Nordeste 6 Nordeste 0 946.8 -0.5 95
2020-02-06 02:00:00 1.5 3 Nordeste 5 Nordeste 0 946.8 -1.1 93
2020-02-06 01:00:00 2.4 3 Nordeste 5 Norte 0 947 -1.1 92
2020-02-06 00:00:00 3.2 2 Norte 5 Norte 0 947.3 -0.7 89
2020-02-05 23:00:00 4 2 Noroeste 5 Nordeste 0 947.9 0.1 88
2020-02-05 22:00:00 4.8 2 Norte 4 Nordeste 0 948.1 0.4 85
2020-02-05 21:00:00 5.5 0 Calma 7 Norte 0 948 0.2 82
2020-02-05 20:00:00 6.5 4 Norte 9 Norte 0 947.8 -0.5 79
2020-02-05 19:00:00 8 5 Norte 9 Norte 0 947.7 -1 74
2020-02-05 18:00:00 9.6 6 Nordeste 21 Nordeste 0 947.8 -1.9 67
2020-02-05 17:00:00 10.4 10 Nordeste 25 Este 0 948.3 -2.4 64
2020-02-05 16:00:00 11 12 Nordeste 23 Nordeste 0 948.7 -3.3 63
2020-02-05 15:00:00 10.4 13 Nordeste 27 Este 0 949.7 -3.2 66
2020-02-05 14:00:00 9.4 15 Nordeste 27 Nordeste 0 950.7 -2.6 71
2020-02-05 13:00:00 8 14 Nordeste 24 Nordeste 0 952 -1.5 72
2020-02-05 12:00:00 6.5 14 Nordeste 22 Nordeste 0 952.9 -0.6 80
2020-02-05 11:00:00 4 9 Nordeste 19 Nordeste 0 953.3 -0.2 90
2020-02-05 10:00:00 2 7 Nordeste 13 Nordeste 0 953.5 0.2 99
2020-02-05 09:00:00 0.7 6 Nordeste 10 Nordeste 0 953.5 -0.1 98
2020-02-05 08:00:00 1 4 Nordeste 9 Norte 0 953.5 0.2 97
2020-02-05 07:00:00 1.8 4 Norte 8 Nordeste 0 953.3 -0.4 96
2020-02-05 06:00:00 2.7 3 Nordeste 10 Nordeste 0 953.6 -0.4 94
2020-02-05 05:00:00 4.1 5 Nordeste 13 Este 0 953.3 -1.2 94
2020-02-05 04:00:00 5.2 6 Nordeste 12 Nordeste 0 953.7 -1 89
2020-02-05 03:00:00 6 7 Nordeste 16 Este 0 954 -0.7 92
2020-02-05 02:00:00 6.1 6 Nordeste 9 Nordeste 0 954.5 -0.2 95
2020-02-05 01:00:00 6.6 4 Este 10 Nordeste 0 954.7 0.6 99
2020-02-05 00:00:00 6 4 Nordeste 11 Nordeste 0 954.7 0.4 100
2020-02-04 23:00:00 6.1 6 Nordeste 9 Nordeste 0 954.7 0.6 99
2020-02-04 22:00:00 6.8 2 Norte 5 Norte 0 954.1 0.3 98
2020-02-04 21:00:00 7.4 3 Noroeste 6 Noroeste 0 954.3 1 97
2020-02-04 20:00:00 7.9 4 Oeste 5 Noroeste 0 954.1 0.9 97
2020-02-04 19:00:00 8.7 3 Noroeste 4 Noroeste 0 953.8 0.2 94
2020-02-04 18:00:00 9.4 0 Calma 9 Norte 0 953.3 -0.4 92
2020-02-04 12:00:00 6.3 5 Norte 19 Norte 0 954.9 1 100
2020-02-04 11:00:00 6.1 11 Norte 17 Norte 0 954.9 1.3 100
2020-02-04 10:00:00 4.8 7 Norte 12 Norte 0 954.3 0.5 100
2020-02-04 09:00:00 5.1 4 Sudoeste 8 Sudoeste 0 953.9 0.2 100
2020-02-04 08:00:00 5.3 2 Sur 6 Sur 0 953.6 0.1 100
2020-02-04 07:00:00 4.8 0 Calma 14 Norte 0 953.8 0.3 100
2020-02-04 06:00:00 4.3 8 Norte 15 Norte 0 953.7 0.3 100
2020-02-04 05:00:00 4.5 3 Norte 7 Noroeste 0 953.5 0.3 100
2020-02-04 04:00:00 4.9 3 Norte 10 Nordeste 0 953.5 -0.2 99
2020-02-04 03:00:00 5.9 3 Sudoeste 12 Nordeste 0 953.4 -0.2 97
2020-02-04 02:00:00 6.9 4 Sur 10 Nordeste 0 953.2 -0.2 99
2020-02-04 01:00:00 7.2 0 Calma 5 Noroeste 0 953.7 1 95
2020-02-04 00:00:00 8.1 2 Oeste 4 Noroeste 0 953.6 1 97
2020-02-03 23:00:00 8.3 2 Norte 5 Nordeste 0 953.4 0.9 97
2020-02-03 22:00:00 8.9 3 Este 7 Norte 0 952.7 0.4 94
2020-02-03 21:00:00 10.3 3 Noroeste 9 Sur 0 952.6 0.7 92
2020-02-03 20:00:00 11 4 Sur 6 Sur 0 952.5 0.3 92
2020-02-03 19:00:00 11.5 2 Este 8 Sudeste 0 952.3 -0.2 88
2020-02-03 18:00:00 12.4 4 Sur 8 Sudeste 0 951.9 -1.2 86
2020-02-03 17:00:00 13 4 Sur 12 Sur 0 952.2 -1.4 83
2020-02-03 16:00:00 13.7 7 Sur 12 Sur 0 952.5 -1.7 81
2020-02-03 15:00:00 11 3 Noroeste 11 Norte 0 953.1 -1.3 91
2020-02-03 14:00:00 10.2 4 Nordeste 10 Nordeste 0 953.6 -1.1 97
2020-02-03 13:00:00 9.1 6 Norte 14 Nordeste 0 954.2 0.2 100
2020-02-03 12:00:00 7.9 8 Nordeste 14 Norte 0 954.4 0.6 100
2020-02-03 11:00:00 7.2 6 Nordeste 14 Norte 0 954.7 1.1 100
2020-02-03 10:00:00 6.8 7 Nordeste 12 Nordeste 0 954 0.5 100
2020-02-03 09:00:00 6.4 9 Nordeste 13 Nordeste 0 953.8 0.1 100
2020-02-03 08:00:00 6.3 5 Nordeste 11 Nordeste 0 953.6 0 100
2020-02-03 07:00:00 6 4 Nordeste 6 Nordeste 0 953.5 -0.3 100
2020-02-03 06:00:00 5.9 3 Nordeste 10 Este 0 953.7 -0.3 98
2020-02-03 05:00:00 7 3 Este 8 Este 0 953.6 -0.8 97
2020-02-03 04:00:00 7.7 4 Nordeste 5 Este 0 953.8 -0.7 96
2020-02-03 03:00:00 7.8 0 Calma 7 Sur 0 954 -0.4 95
2020-02-03 02:00:00 8.6 4 Sur 7 Sudeste 0 954.4 0.1 94
2020-02-03 01:00:00 9.7 3 Noroeste 5 Sur 0 954.5 0.4 92
2020-02-03 00:00:00 10.5 3 Sur 6 Sudoeste 0 954.4 0.6 89
2020-02-02 23:00:00 11.2 3 Sudoeste 8 Sudoeste 0 954.3 0.8 89
2020-02-02 22:00:00 12.1 3 Sur 8 Sudoeste 0 954.1 1.3 85
2020-02-02 21:00:00 13.9 3 Sudoeste 11 Sudoeste 0 953.8 1.6 79
2020-02-02 20:00:00 14.6 2 Sudoeste 9 Oeste 0 953.5 1.7 77
2020-02-02 19:00:00 15.8 4 Sur 8 Oeste 0 952.8 1 74
2020-02-02 18:00:00 17.1 3 Oeste 13 Sudoeste 0 952.2 0.2 70
2020-02-02 17:00:00 17.7 6 Sudoeste 18 Oeste 0 951.8 -0.5 63
2020-02-02 16:00:00 18.8 6 Sudoeste 22 Sudoeste 0 951.8 -0.8 59
2020-02-02 15:00:00 18.8 7 Sudoeste 17 Sudoeste 0 952 -0.8 62
2020-02-02 14:00:00 18.3 7 Sudoeste 17 Oeste 0 952.3 -0.1 69
2020-02-02 13:00:00 16.4 5 Sudoeste 15 Sudoeste 0 952.6 0.5 74
2020-02-02 12:00:00 15.2 4 Sudoeste 18 Oeste 0 952.8 0.9 76
2020-02-02 11:00:00 14.1 6 Sudoeste 17 Sudoeste 0 952.4 0.7 82
2020-02-02 10:00:00 12.8 8 Sur 14 Sur 0 952.1 0.8 89
2020-02-02 09:00:00 12.5 4 Sudoeste 14 Sudoeste 0 951.9 1.1 89
2020-02-02 08:00:00 12.9 3 Sudoeste 14 Sudoeste 0 951.7 0.9 88
2020-02-02 07:00:00 12.8 5 Sudoeste 15 Sur 0 951.3 0.3 89
2020-02-02 06:00:00 12.6 4 Sudoeste 18 Sudoeste 0 950.8 -0.1 91
2020-02-02 05:00:00 12.7 6 Sudoeste 19 Sudoeste 0 950.8 -0.2 92
2020-02-02 04:00:00 12.7 4 Sur 12 Sudoeste 0 951 -0.2 93
2020-02-02 03:00:00 12.7 2 Sur 15 Sudoeste 0 950.9 0.1 92
2020-02-02 02:00:00 12.8 7 Sudoeste 17 Oeste 0 951 0.5 91
2020-02-02 01:00:00 12.4 3 Sudoeste 12 Oeste 0 951.2 0.5 93
2020-02-02 00:00:00 12.7 5 Sudoeste 17 Sudoeste 0 950.8 0.4 92
2020-02-01 23:00:00 13.1 7 Sudoeste 21 Sudoeste 0 950.5 0.7 89
2020-02-01 22:00:00 13.7 10 Sudoeste 22 Sudoeste 0 950.7 1.6 87
2020-02-01 21:00:00 13.8 4 Sudoeste 12 Sudoeste 0 950.4 1.7 88
2020-02-01 20:00:00 13.5 3 Sur 16 Sudoeste 0 949.8 1.2 85
2020-02-01 19:00:00 14.7 7 Sudoeste 19 Sudoeste 0 949.1 0.7 80
2020-02-01 18:00:00 15.6 8 Sudoeste 19 Sudoeste 0 948.7 0.3 76
2020-02-01 17:00:00 16.4 8 Sudoeste 23 Oeste 0 948.6 -0.2 74
2020-02-01 16:00:00 16.8 9 Oeste 23 Sudoeste 0 948.4 -0.3 71
2020-02-01 15:00:00 16 9 Oeste 23 Oeste 0 948.4 -0.7 76
2020-02-01 14:00:00 15.3 9 Sudoeste 28 Sudoeste 0 948.8 0 78
2020-02-01 13:00:00 15.5 10 Sudoeste 28 Sudoeste 0 948.7 1.3 78
2020-02-01 12:00:00 14.6 8 Sudoeste 27 Sudoeste 0 949.1 2.6 85
2020-02-01 11:00:00 13.7 8 Oeste 24 Oeste 0 948.8 3.1 89
2020-02-01 10:00:00 12.8 8 Sudoeste 23 Sudoeste 0 947.4 2.5 93
2020-02-01 09:00:00 12.3 10 Sudoeste 27 Sudoeste 0 946.5 1.2 95
2020-02-01 08:00:00 12.1 8 Sudoeste 19 Sudoeste 0 945.7 1 96
2020-02-01 07:00:00 12.3 11 Sudoeste 20 Sudoeste 0.2 944.9 0.3 96
2020-02-01 06:00:00 12.3 8 Sudoeste 23 Sur 0 945.3 0.8 96
2020-02-01 05:00:00 12.8 9 Sudoeste 26 Oeste 0 944.7 0.3 93
2020-02-01 04:00:00 12.9 9 Sudoeste 24 Oeste 0.2 944.6 0.3 92
2020-02-01 03:00:00 13 10 Sudoeste 24 Sudoeste 0 944.5 0.1 94
2020-02-01 02:00:00 13 10 Sudoeste 30 Sudoeste 0.2 944.4 -0.3 95
2020-02-01 01:00:00 13 9 Sudoeste 30 Sudoeste 0 944.3 -0.8 92
2020-02-01 00:00:00 12.5 12 Sudoeste 25 Sudoeste 0 944.4 -0.7 93
2020-01-31 23:00:00 12.4 5 Sudoeste 20 Oeste 0.4 944.7 -0.4 92
2020-01-31 22:00:00 12.8 6 Sudoeste 18 Sudoeste 0 945.1 0.1 88
2020-01-31 21:00:00 12.5 4 Sudoeste 16 Oeste 0 945.1 0 89
2020-01-31 20:00:00 12.4 4 Sur 14 Oeste 0 945.1 0 89
2020-01-31 19:00:00 13.1 6 Sudoeste 23 Sudoeste 0 945 -0.3 89
2020-01-31 18:00:00 13.9 5 Sudoeste 17 Sudoeste 0 945.1 -0.9 82
2020-01-31 17:00:00 14.5 7 Sudoeste 21 Sudoeste 0 945.1 -1.4 78
2020-01-31 16:00:00 14.8 6 Sudoeste 17 Sudoeste 0 945.3 -1.9 75
2020-01-31 15:00:00 14.5 7 Sudoeste 23 Sudoeste 0 946 -1.5 76
2020-01-31 14:00:00 14.3 11 Oeste 25 Oeste 0 946.5 -0.7 77
2020-01-31 13:00:00 13.2 10 Oeste 29 Oeste 0.2 947.2 -0.1 82
2020-01-31 12:00:00 12.7 11 Sudoeste 26 Sudoeste 0 947.5 0.4 85
2020-01-31 11:00:00 12.3 6 Sudoeste 22 Sudoeste 0 947.2 0.5 89
2020-01-31 10:00:00 11.5 5 Sudoeste 14 Sudoeste 0 947.3 1.3 93
2020-01-31 09:00:00 11 5 Sudoeste 16 Sudoeste 0 947.1 1.4 94
2020-01-31 08:00:00 11.1 5 Sudoeste 17 Sudoeste 0 946.7 0.6 93
2020-01-31 07:00:00 11.2 6 Sudoeste 15 Oeste 0 946 -0.4 93
2020-01-31 06:00:00 11.3 5 Sudoeste 19 Sudoeste 0 945.7 -0.6 93
2020-01-31 05:00:00 11.3 7 Sudoeste 16 Sudoeste 0 946.1 -0.3 93
2020-01-31 04:00:00 11.3 7 Sudoeste 15 Sudoeste 0 946.4 -0.2 94
2020-01-31 03:00:00 11.1 5 Sudoeste 21 Sudoeste 0 946.3 -0.2 94
2020-01-31 02:00:00 11.1 9 Sudoeste 25 Sudoeste 0 946.4 -0.1 94
2020-01-31 01:00:00 11.1 6 Sudoeste 20 Sudoeste 0 946.6 0.3 94
2020-01-31 00:00:00 10.9 7 Sudoeste 19 Sudoeste 0 946.5 0.5 95
2020-01-30 23:00:00 10.8 7 Sudoeste 19 Oeste 0 946.5 0.9 95
2020-01-30 22:00:00 10.8 8 Sudoeste 20 Sudoeste 0 946.3 0.9 94
2020-01-30 21:00:00 10.7 9 Sudoeste 21 Sur 0 946 1.2 93
2020-01-30 20:00:00 10.8 5 Sudoeste 17 Sur 0 945.6 0.8 93
2020-01-30 19:00:00 10.7 6 Sudoeste 19 Sudoeste 0 945.4 0.6 93
2020-01-30 18:00:00 10.7 8 Sudoeste 20 Sudoeste 0 944.8 -0.4 92
2020-01-30 17:00:00 10.9 9 Sudoeste 24 Sudoeste 0 944.8 -1.1 88
2020-01-30 16:00:00 11 7 Sudoeste 25 Sudoeste 0 944.8 -1.7 85
2020-01-30 15:00:00 11.2 8 Sudoeste 20 Sur 0 945.2 -1.7 82
2020-01-30 14:00:00 11 7 Sudoeste 25 Sudoeste 0 945.9 -0.8 82
2020-01-30 13:00:00 10.7 9 Sudoeste 22 Oeste 0 946.5 0 81
2020-01-30 12:00:00 10.3 10 Sudoeste 26 Sudoeste 0 946.9 1.2 82
2020-01-30 11:00:00 9.8 8 Sudoeste 23 Sudoeste 0 946.7 1 82
2020-01-30 10:00:00 9.2 7 Sudoeste 17 Sudoeste 0 946.5 0.9 84
2020-01-30 09:00:00 8.9 6 Sudoeste 21 Sudoeste 0 945.7 0.4 84
2020-01-30 08:00:00 8.8 10 Sudoeste 22 Sudoeste 0 945.7 0.6 84
2020-01-30 07:00:00 8.7 7 Sudoeste 20 Oeste 0 945.6 -0.1 83
2020-01-30 06:00:00 9.1 6 Sudoeste 13 Oeste 0 945.3 -0.6 91
2020-01-30 05:00:00 9.6 5 Sudoeste 18 Sudoeste 0 945.1 -1.3 90
2020-01-30 04:00:00 9.8 6 Sudoeste 16 Sudoeste 0 945.7 -0.6 90
2020-01-30 03:00:00 10 6 Sudoeste 15 Sudoeste 0 945.9 -0.5 89
2020-01-30 02:00:00 10.1 6 Sudoeste 22 Sudoeste 0 946.4 -0.1 89
2020-01-30 01:00:00 10.3 7 Sudoeste 21 Sudoeste 0 946.3 0 88
2020-01-30 00:00:00 10.8 9 Sudoeste 24 Sudoeste 0 946.4 0 89
2020-01-29 23:00:00 10.9 5 Sudoeste 20 Sudoeste 0 946.5 0.6 90
2020-01-29 22:00:00 11.1 8 Sudoeste 23 Sudoeste 0 946.3 0.8 90
2020-01-29 21:00:00 11.4 11 Sudoeste 23 Sur 0 946.4 1.1 90
2020-01-29 20:00:00 11.5 7 Sudoeste 20 Sudoeste 0 945.9 0.7 90
2020-01-29 19:00:00 11.8 8 Sudoeste 19 Sudoeste 0 945.5 0.5 89
2020-01-29 18:00:00 12.1 6 Sudoeste 24 Sudoeste 0 945.3 0 87
2020-01-29 17:00:00 12 7 Oeste 31 Sudoeste 0 945.2 -0.5 88
2020-01-29 16:00:00 12.1 9 Sudoeste 26 Sudoeste 0 945 -1.2 90
2020-01-29 15:00:00 11.9 8 Oeste 26 Sudoeste 0 945.3 -1.5 91
2020-01-29 14:00:00 11.7 9 Sudoeste 20 Oeste 0.2 945.7 -1 90
2020-01-29 13:00:00 11.2 8 Sudoeste 21 Sudoeste 0.4 946.2 -0.5 91
2020-01-29 12:00:00 10.9 9 Sudoeste 21 Oeste 0.2 946.8 0.3 90
2020-01-29 11:00:00 10.6 8 Sudoeste 16 Sudoeste 0 946.7 0.6 91
2020-01-29 10:00:00 10 5 Sudoeste 13 Sudoeste 0 946.7 1.2 93
2020-01-29 09:00:00 10 4 Sudoeste 12 Sudoeste 0 946.5 1.1 92
2020-01-29 08:00:00 10.2 6 Sudoeste 16 Sudoeste 0 946.1 0.9 91
2020-01-29 07:00:00 10.2 8 Sudoeste 18 Sudoeste 0 945.5 -0.1 91
2020-01-29 06:00:00 10.3 8 Sudoeste 17 Sudoeste 0 945.4 0 92
2020-01-29 05:00:00 10.5 6 Sudoeste 16 Sudoeste 0 945.2 -0.1 92
2020-01-29 04:00:00 10.6 6 Sudoeste 16 Sudoeste 0 945.6 0.3 91
2020-01-29 03:00:00 10.6 5 Sudoeste 17 Noroeste 0 945.4 0.3 91
2020-01-29 02:00:00 10.8 8 Sudoeste 19 Oeste 0 945.3 0.1 91
2020-01-29 01:00:00 11 6 Sudoeste 23 Sudoeste 0 945.3 0.5 92
2020-01-29 00:00:00 11.2 7 Sudoeste 21 Sudoeste 0 945.1 0.6 92
2020-01-28 23:00:00 11.4 9 Sudoeste 25 Sudoeste 0 945.2 0.8 92
2020-01-28 22:00:00 11.5 7 Sudoeste 21 Oeste 0 944.8 0.7 92
2020-01-28 21:00:00 11.3 9 Sudoeste 26 Sudoeste 0 944.5 0.6 93
2020-01-28 20:00:00 11.4 8 Sudoeste 25 Sudoeste 0 944.4 0.7 93
2020-01-28 19:00:00 11.6 8 Sudoeste 23 Oeste 0 944.1 0.2 92
2020-01-28 18:00:00 11.8 8 Sudoeste 23 Oeste 0 943.9 0 91
2020-01-28 17:00:00 12.1 8 Sudoeste 25 Sudoeste 0 943.7 -0.6 91
2020-01-28 16:00:00 12.1 10 Oeste 29 Oeste 0.2 943.9 -1 90
2020-01-28 15:00:00 12.2 9 Oeste 25 Oeste 1 943.9 -1.1 92
2020-01-28 14:00:00 12.1 8 Oeste 22 Sudoeste 0.2 944.3 -0.3 94
2020-01-28 13:00:00 11.8 6 Sudoeste 19 Sudoeste 0.4 944.9 0.8 96
2020-01-28 12:00:00 11.4 6 Oeste 18 Oeste 0 945 1.4 97
2020-01-28 11:00:00 10.8 6 Oeste 17 Sudoeste 0.8 944.6 1.3 99
2020-01-28 10:00:00 10.2 3 Oeste 13 Sudoeste 0.8 944.1 1.2 99
2020-01-28 09:00:00 10 7 Sudoeste 15 Sudoeste 1 943.6 0.8 98
2020-01-28 08:00:00 10.1 6 Oeste 17 Sudoeste 0 943.3 0.6 97
2020-01-28 07:00:00 9.9 7 Sudoeste 21 Oeste 0 942.9 0.4 97
2020-01-28 06:00:00 9.9 9 Sudoeste 23 Sudoeste 0 942.8 0.3 95
2020-01-28 05:00:00 9.8 7 Sudoeste 26 Sudoeste 0.2 942.7 0.2 94
2020-01-28 04:00:00 9.7 13 Sudoeste 26 Sur 0.4 942.5 0.1 96
2020-01-28 03:00:00 9.7 12 Sudoeste 24 Sudoeste 0.6 942.5 0.2 95
2020-01-28 02:00:00 9.9 8 Sudoeste 31 Sudoeste 0 942.5 0.2 92
2020-01-28 01:00:00 9.7 15 Sudoeste 33 Sudoeste 0 942.4 0 91
2020-01-28 00:00:00 10 13 Sudoeste 35 Sudoeste 0 942.3 -0.1 88
2020-01-27 23:00:00 10.1 16 Sudoeste 35 Sudoeste 0 942.3 -0.1 86
2020-01-27 22:00:00 10.2 11 Sudoeste 28 Sudoeste 0 942.4 0.5 87
2020-01-27 21:00:00 10 9 Sudoeste 28 Sudoeste 0 942.4 0.8 85
2020-01-27 20:00:00 10.3 12 Sudoeste 33 Sudoeste 0 942.4 1 80
2020-01-27 19:00:00 10.6 13 Sudoeste 31 Sudoeste 0 941.9 0.5 79
2020-01-27 18:00:00 10.8 13 Sudoeste 38 Sur 0 941.6 -0.2 79
2020-01-27 17:00:00 11.3 13 Oeste 33 Noroeste 0 941.4 -0.8 80
2020-01-27 16:00:00 10.1 14 Sudoeste 38 Sudoeste 0 941.4 -1.4 87
2020-01-27 15:00:00 10.3 17 Sudoeste 40 Sudoeste 0 941.8 -1.2 84
2020-01-27 14:00:00 10.2 15 Sudoeste 47 Sudoeste 0 942.2 -1.2 83
2020-01-27 13:00:00 10.4 20 Sudoeste 44 Sudoeste 0 942.8 -0.8 79
2020-01-27 12:00:00 9.3 16 Sudoeste 41 Sudoeste 0.2 943 -0.7 87
2020-01-27 11:00:00 9.1 15 Sudoeste 33 Sudoeste 0 943.4 -0.4 83
2020-01-27 10:00:00 8.2 13 Sudoeste 29 Sudoeste 0 943.6 -0.2 85
2020-01-27 09:00:00 7.2 9 Sudoeste 27 Sudoeste 0 943.7 -0.8 87
2020-01-27 08:00:00 6.7 6 Sudoeste 16 Sudoeste 0 943.8 -1.1 87
2020-01-27 07:00:00 6.3 2 Sur 14 Sudoeste 0 943.8 -1.6 89
2020-01-27 06:00:00 6.3 5 Sudoeste 18 Sudoeste 0 944.5 -1.6 90
2020-01-27 05:00:00 5.3 3 Sudeste 13 Sudoeste 0 944.9 -1.2 92
2020-01-27 04:00:00 5.3 5 Sur 15 Sudoeste 0 945.4 -1.2 90
2020-01-27 03:00:00 6.2 5 Sudoeste 14 Sudoeste 0 946.1 -0.6 88
2020-01-27 02:00:00 6.5 7 Sudoeste 18 Sudoeste 0 946.1 -0.3 90
2020-01-27 01:00:00 6.7 5 Sudoeste 13 Oeste 0 946.6 0 88
2020-01-27 00:00:00 6.6 4 Sudoeste 13 Sur 0 946.7 0.4 86
2020-01-26 23:00:00 7 3 Sudoeste 13 Sudoeste 0 946.4 -0.1 83
2020-01-26 22:00:00 7.6 3 Sudoeste 10 Sudoeste 0 946.6 0.6 81
2020-01-26 21:00:00 7.9 4 Sur 10 Sur 0 946.3 0.6 80
2020-01-26 20:00:00 8.2 3 Sudoeste 13 Oeste 0 946.5 0.9 76
2020-01-26 19:00:00 8.4 4 Sudoeste 11 Sudoeste 0 946 0.5 73
2020-01-26 18:00:00 8.7 5 Oeste 16 Noroeste 0 945.7 0.2 73
2020-01-26 17:00:00 9 4 Oeste 16 Sudoeste 0 945.6 -0.4 73
2020-01-26 16:00:00 9.1 8 Oeste 17 Sudoeste 0 945.5 -1.1 69
2020-01-26 15:00:00 9.1 7 Oeste 19 Oeste 0 945.5 -1.3 72
2020-01-26 14:00:00 8.7 8 Oeste 17 Oeste 0 946 -0.8 76
2020-01-26 13:00:00 5.4 5 Oeste 14 Oeste 0 946.6 0.3 95
2020-01-26 12:00:00 2.8 3 Oeste 11 Sudoeste 0 946.8 1.3 100
2020-01-26 11:00:00 2 5 Sudoeste 13 Sudoeste 0 946.8 2 100
2020-01-26 10:00:00 1.7 4 Sudoeste 14 Oeste 0 946.3 2.2 100
2020-01-26 09:00:00 1.7 3 Oeste 12 Oeste 0 945.5 1.7 100
2020-01-26 08:00:00 1.6 5 Oeste 13 Sudoeste 0 944.8 1.4 100
2020-01-26 07:00:00 1.8 4 Oeste 9 Sudoeste 0 944.1 0.9 100
2020-01-26 06:00:00 1.3 3 Noroeste 8 Noroeste 0 943.8 1.3 100
2020-01-26 05:00:00 1.6 3 Noroeste 11 Sudoeste 0 943.4 0.9 100
2020-01-26 04:00:00 1.7 3 Oeste 6 Noroeste 0 943.2 0.5 98
2020-01-26 03:00:00 2.5 2 Oeste 8 Sur 0 942.5 0.2 96
2020-01-26 02:00:00 3.4 4 Sur 7 Sur 0 942.5 0.6 98
2020-01-26 01:00:00 3.1 3 Oeste 8 Oeste 0 942.7 1.1 97
2020-01-26 00:00:00 3.5 3 Oeste 8 Oeste 0 942.3 1.2 97
2020-01-25 23:00:00 4.3 3 Sur 8 Noroeste 0 941.9 1.2 95
2020-01-25 22:00:00 4.7 2 Oeste 6 Noroeste 0 941.6 1.5 94
2020-01-25 21:00:00 5.4 3 Oeste 5 Oeste 0 941.1 1.5 91
2020-01-25 20:00:00 6.2 0 Calma 7 Noroeste 0 940.7 1.4 91
2020-01-25 19:00:00 7 2 Noroeste 6 Norte 0 940.1 1 89
2020-01-25 18:00:00 7.7 4 Norte 7 Norte 0 939.6 0.3 86
2020-01-25 17:00:00 8 4 Norte 9 Norte 0 939.3 -0.5 86
2020-01-25 16:00:00 7.8 5 Nordeste 11 Nordeste 0 939.1 -1.4 86
2020-01-25 15:00:00 7.5 6 Nordeste 11 Norte 0 939.3 -1.6 90
2020-01-25 14:00:00 7.2 4 Norte 8 Norte 0.4 939.8 -0.8 94
2020-01-25 13:00:00 6 5 Nordeste 10 Nordeste 0 940.5 0.1 97
2020-01-25 12:00:00 5.2 6 Nordeste 14 Norte 0 940.9 0.8 99
2020-01-25 11:00:00 4.5 8 Nordeste 14 Nordeste 0.4 940.6 0.9 100
2020-01-25 10:00:00 3.8 9 Nordeste 14 Norte 0.2 940.4 1.1 100
2020-01-25 09:00:00 3.1 5 Nordeste 9 Nordeste 0.2 940.1 0.7 100
2020-01-25 08:00:00 2.8 5 Norte 8 Norte 0 939.7 0 100
2020-01-25 07:00:00 2.3 4 Nordeste 13 Norte 0 939.3 -0.8 100
2020-01-25 06:00:00 2.3 5 Nordeste 11 Nordeste 0 939.4 -1.1 100
2020-01-25 05:00:00 2.5 5 Nordeste 8 Nordeste 0 939.7 -1.2 100
2020-01-25 04:00:00 2.9 5 Nordeste 10 Nordeste 0 940.1 -1.4 100
2020-01-25 03:00:00 3.4 5 Nordeste 11 Nordeste 0 940.5 -1.3 100
2020-01-25 02:00:00 3.8 3 Nordeste 9 Nordeste 0 940.9 -1 100
2020-01-25 01:00:00 4 4 Norte 5 Norte 0 941.5 -0.3 99
2020-01-25 00:00:00 4.2 4 Sudeste 9 Sudeste 0 941.8 -0.3 97
2020-01-24 23:00:00 5.2 2 Nordeste 10 Sur 0 941.9 -0.1 98
2020-01-24 22:00:00 5.3 2 Este 7 Este 0 941.8 0.2 95
2020-01-24 21:00:00 6 0 Calma 4 Nordeste 0 942.1 0.5 95
2020-01-24 20:00:00 6.5 4 Nordeste 7 Nordeste 0 942 0.4 94
2020-01-24 19:00:00 6.6 5 Nordeste 8 Norte 0 941.6 0 93
2020-01-24 18:00:00 7 4 Nordeste 7 Sudeste 0.4 941.6 -0.5 94
2020-01-24 17:00:00 7.6 5 Sudeste 9 Sudeste 0 941.6 -0.9 88
2020-01-24 16:00:00 7.8 4 Este 9 Nordeste 0 941.6 -1.5 86
2020-01-24 15:00:00 7.6 4 Norte 11 Nordeste 0 942.1 -1.5 89
2020-01-24 14:00:00 7.2 6 Nordeste 11 Nordeste 0 942.5 -0.9 91
2020-01-24 13:00:00 6.8 4 Nordeste 10 Norte 0 943.1 -0.1 94
2020-01-24 12:00:00 5.2 4 Este 12 Este 0.2 943.6 0.8 95
2020-01-24 11:00:00 4.4 2 Norte 9 Noroeste 0.2 943.4 1 97
2020-01-24 10:00:00 3.8 3 Nordeste 5 Este 0.2 943.2 1.1 97
2020-01-24 09:00:00 3.5 5 Nordeste 9 Nordeste 0.2 942.8 1 97
2020-01-24 08:00:00 3.6 3 Nordeste 6 Nordeste 0 942.4 0.5 97
2020-01-24 07:00:00 3.6 4 Norte 6 Nordeste 0 942.1 0 96
2020-01-24 06:00:00 3.8 3 Norte 8 Norte 0 941.8 -0.1 95
2020-01-24 05:00:00 3.8 6 Norte 9 Norte 0 941.9 0.1 94
2020-01-24 04:00:00 3.5 5 Norte 10 Norte 0 942.1 0 94
2020-01-24 03:00:00 3.1 3 Noroeste 5 Norte 0 941.9 -0.1 93
2020-01-24 02:00:00 3.4 2 Noroeste 7 Nordeste 0 941.8 0.3 91
2020-01-24 01:00:00 3.9 3 Norte 9 Noroeste 0 942.1 0.7 90
2020-01-24 00:00:00 4.9 5 Norte 7 Norte 0 942 1 86
2020-01-23 23:00:00 5.3 4 Sur 10 Sur 0 941.5 1 84
2020-01-23 22:00:00 5.3 4 Sudeste 9 Sur 0 941.4 1.5 83
2020-01-23 21:00:00 5.3 4 Este 10 Sur 0 941 1.3 82
2020-01-23 20:00:00 5.9 4 Este 7 Nordeste 0 940.5 1 80
2020-01-23 19:00:00 6.9 4 Nordeste 10 Este 0 939.9 0.2 80
2020-01-23 18:00:00 8.6 5 Este 15 Nordeste 0 939.7 -0.3 71
2020-01-23 17:00:00 9.7 7 Este 14 Nordeste 0 939.5 -1.3 66
2020-01-23 16:00:00 10 5 Este 16 Nordeste 0 939.7 -1.7 65
2020-01-23 15:00:00 11.1 5 Este 17 Este 0 940 -2.1 60
2020-01-23 14:00:00 10.2 8 Este 17 Este 0 940.8 -1.4 65
2020-01-23 13:00:00 7.9 5 Este 12 Nordeste 0 941.4 -0.3 78
2020-01-23 12:00:00 4.8 6 Nordeste 13 Nordeste 0 942.1 0.8 85
2020-01-23 11:00:00 2.4 3 Nordeste 14 Norte 0 942.2 1.5 93
2020-01-23 10:00:00 0.2 5 Nordeste 15 Nordeste 0 941.7 1.4 97
2020-01-23 09:00:00 -0.3 8 Nordeste 18 Nordeste 0 941.3 1.1 96
2020-01-23 08:00:00 -0.1 9 Nordeste 19 Nordeste 0 940.7 0 97
2020-01-23 07:00:00 -0.2 7 Nordeste 14 Nordeste 0 940.3 -0.5 97
2020-01-23 06:00:00 0.2 6 Nordeste 13 Norte 0 940.2 -0.9 96
2020-01-23 05:00:00 0.6 7 Nordeste 13 Norte 0 940.7 -0.4 95
2020-01-23 04:00:00 1.3 7 Nordeste 14 Nordeste 0 940.8 -0.6 93
2020-01-23 03:00:00 2.1 6 Nordeste 15 Nordeste 0 941.1 -0.2 91
2020-01-23 02:00:00 3.3 5 Nordeste 18 Nordeste 0 941.1 -0.2 88
2020-01-23 01:00:00 4.8 8 Nordeste 14 Nordeste 0 941.4 0.2 86
2020-01-23 00:00:00 5.4 9 Nordeste 15 Nordeste 0 941.3 0.2 84
2020-01-22 23:00:00 5.9 7 Nordeste 18 Este 0 941.3 0.7 82
2020-01-22 22:00:00 6 7 Nordeste 12 Este 0 941.2 0.7 82
2020-01-22 21:00:00 6.2 5 Nordeste 10 Nordeste 0 941.1 0.7 80
2020-01-22 20:00:00 7.2 3 Norte 10 Nordeste 0 940.6 0.1 76
2020-01-22 19:00:00 8.5 5 Este 15 Nordeste 0 940.5 -0.3 70
2020-01-22 18:00:00 9.2 7 Nordeste 18 Nordeste 0 940.4 -0.8 69
2020-01-22 17:00:00 9.9 10 Nordeste 18 Este 0 940.5 -1.6 64
2020-01-22 16:00:00 10.8 11 Este 23 Este 0 940.8 -2.2 59
2020-01-22 15:00:00 11.1 12 Este 27 Este 0 941.2 -2.3 62
2020-01-22 14:00:00 10.8 14 Este 28 Este 0 942.1 -1.4 63
2020-01-22 13:00:00 9.5 17 Este 29 Este 0 943 -0.2 67
2020-01-22 12:00:00 7.7 14 Este 28 Este 0 943.5 0.1 72
2020-01-22 11:00:00 7.4 12 Este 27 Este 0 943.5 0.7 75
2020-01-22 10:00:00 5.3 11 Este 19 Este 0 943.2 0.5 84
2020-01-22 09:00:00 4.5 8 Este 29 Este 0 943.4 0.6 87
2020-01-22 08:00:00 4.6 16 Este 30 Nordeste 0 942.8 -0.3 87
2020-01-22 07:00:00 4.8 18 Nordeste 35 Nordeste 0 942.7 -0.3 87
2020-01-22 06:00:00 4.8 22 Nordeste 45 Este 0 942.8 -0.1 87
2020-01-22 05:00:00 4.5 18 Este 47 Nordeste 0 943.1 -0.3 86
2020-01-22 04:00:00 4.3 25 Este 47 Nordeste 0 943 -0.8 86
2020-01-22 03:00:00 4.1 24 Nordeste 50 Nordeste 0 942.9 -0.9 86
2020-01-22 02:00:00 3.9 26 Este 51 Este 0 943.4 -0.1 86
2020-01-22 01:00:00 3.9 25 Este 50 Este 0 943.8 0.5 87
2020-01-22 00:00:00 3.4 28 Nordeste 49 Este 0 943.8 0.4 85